createdAt,value
2022-10-22T00:07:06.719Z,96721.58
2022-10-22T00:17:11.668Z,96726.69
2022-10-22T00:27:15.567Z,96724.23
2022-10-22T00:37:19.537Z,96724.91
2022-10-22T00:47:25.761Z,96711.91
2022-10-22T00:57:29.423Z,96708.16
2022-10-22T01:07:39.958Z,96698.03
2022-10-22T01:18:08.583Z,96699.79
2022-10-22T01:28:15.168Z,96699.30
2022-10-22T01:38:24.964Z,96703.87
2022-10-22T01:48:43.747Z,96698.81
2022-10-22T01:59:04.687Z,96690.11
2022-10-22T02:09:09.945Z,96682.27
2022-10-22T02:19:39.688Z,96671.45
2022-10-22T02:29:58.352Z,96664.65
2022-10-22T02:40:02.332Z,96655.41
2022-10-22T02:50:09.533Z,96659.73
2022-10-22T03:00:14.619Z,96665.02
2022-10-22T03:10:18.141Z,96675.95
2022-10-22T03:20:21.805Z,96678.33
2022-10-22T03:30:25.576Z,96674.80
2022-10-22T03:40:29.457Z,96690.80
2022-10-22T03:50:33.512Z,96687.27
2022-10-22T04:00:37.473Z,96680.38
2022-10-22T04:10:40.951Z,96685.54
2022-10-22T04:20:44.517Z,96669.55
2022-10-22T04:30:48.174Z,96650.30
2022-10-22T04:40:51.947Z,96633.72
2022-10-22T04:50:58.279Z,96634.91
2022-10-22T05:01:09.633Z,96647.20
2022-10-22T05:11:19.543Z,96679.75
2022-10-22T05:21:24.207Z,96693.46
2022-10-22T05:31:29.257Z,96693.36
2022-10-22T05:41:34.693Z,96693.84
2022-10-22T05:51:38.491Z,96690.83
2022-10-22T06:01:42.682Z,96690.94
2022-10-22T06:11:47.863Z,96691.77
2022-10-22T06:21:51.618Z,96695.77
2022-10-22T06:31:55.308Z,96701.52
2022-10-22T06:41:59.380Z,96714.67
2022-10-22T06:52:05.083Z,96715.06
2022-10-22T07:02:10.488Z,96723.23
2022-10-22T07:12:14.658Z,96713.68
2022-10-22T07:22:19.581Z,96728.64
2022-10-22T07:32:23.973Z,96735.10
2022-10-22T07:42:27.692Z,96730.41
2022-10-22T07:52:31.665Z,96716.43
2022-10-22T08:02:35.857Z,96702.99
2022-10-22T08:12:40.526Z,96698.98
2022-10-22T08:22:44.715Z,96692.02
2022-10-22T08:32:53.037Z,96706.85
2022-10-22T08:43:14.459Z,96720.50
2022-10-22T08:53:21.810Z,96735.98
2022-10-22T09:03:32.467Z,96748.39
2022-10-22T09:13:36.718Z,96743.30
2022-10-22T09:24:05.039Z,96751.64
2022-10-22T09:34:08.728Z,96759.20
2022-10-22T09:44:13.999Z,96742.52
2022-10-22T09:54:43.061Z,96728.05
2022-10-22T10:04:48.241Z,96733.80
2022-10-22T10:15:28.081Z,96732.11
2022-10-22T10:26:13.253Z,96726.09
2022-10-22T10:36:37.276Z,96725.98
2022-10-22T10:47:19.325Z,96726.65
2022-10-22T10:58:01.471Z,96730.69
2022-10-22T11:08:18.674Z,96741.86
2022-10-22T11:18:33.460Z,96741.88
2022-10-22T11:28:51.349Z,96739.22
2022-10-22T11:38:55.216Z,96737.10
2022-10-22T11:49:14.103Z,96731.52
2022-10-22T11:59:39.694Z,96725.42
2022-10-22T12:09:43.734Z,96715.09
2022-10-22T12:20:02.488Z,96702.53
2022-10-22T12:30:17.523Z,96698.88
2022-10-22T12:40:24.059Z,96698.86
2022-10-22T12:50:42.179Z,96700.00
2022-10-22T13:00:47.833Z,96691.73
2022-10-22T13:10:54.739Z,96695.69
2022-10-22T13:21:02.881Z,96695.77
2022-10-22T13:31:21.966Z,96698.72
2022-10-22T13:41:28.465Z,96700.63
2022-10-22T13:51:35.677Z,96694.53
2022-10-22T14:01:40.137Z,96692.90
2022-10-22T14:11:44.798Z,96692.32
2022-10-22T14:21:49.599Z,96671.19
2022-10-22T14:31:55.120Z,96669.00
2022-10-22T14:41:59.198Z,96679.28
2022-10-22T14:52:04.240Z,96677.96
2022-10-22T15:02:14.159Z,96678.48
2022-10-22T15:12:18.935Z,96685.00
2022-10-22T15:22:23.511Z,96692.21
2022-10-22T15:32:29.659Z,96695.04
2022-10-22T15:42:33.662Z,96689.58
2022-10-22T15:52:37.425Z,96685.14
2022-10-22T16:02:42.019Z,96700.45
2022-10-22T16:12:45.832Z,96699.75
2022-10-22T16:22:50.883Z,96703.27
2022-10-22T16:32:54.642Z,96717.78
2022-10-22T16:42:59.757Z,96734.16
2022-10-22T16:53:04.539Z,96737.08
2022-10-22T17:03:11.883Z,96745.38
2022-10-22T17:13:16.997Z,96758.80
2022-10-22T17:23:21.463Z,96760.19
2022-10-22T17:33:29.667Z,96765.21
2022-10-22T17:43:36.836Z,96776.31
2022-10-22T17:53:47.218Z,96787.38
2022-10-22T18:03:55.818Z,96796.73
2022-10-22T18:14:00.086Z,96798.55
2022-10-22T18:24:05.418Z,96799.80
2022-10-22T18:34:10.655Z,96807.85
2022-10-22T18:44:16.779Z,96809.64
2022-10-22T18:54:26.079Z,96812.92
2022-10-22T19:04:37.641Z,96816.38
2022-10-22T19:14:43.187Z,96822.01
2022-10-22T19:24:51.930Z,96841.27
2022-10-22T19:34:59.358Z,96845.38
2022-10-22T19:45:09.039Z,96854.96
2022-10-22T19:55:14.783Z,96870.02
2022-10-22T20:05:19.727Z,96879.97
2022-10-22T20:15:25.409Z,96893.37
2022-10-22T20:25:29.958Z,96908.67
2022-10-22T20:35:33.845Z,96923.70
2022-10-22T20:45:38.491Z,96927.68
2022-10-22T20:55:43.485Z,96934.38
2022-10-22T21:05:49.737Z,96947.10
2022-10-22T21:15:53.843Z,96948.95
2022-10-22T21:25:58.501Z,96952.92
2022-10-22T21:36:02.179Z,96962.48
2022-10-22T21:46:08.239Z,96963.23
2022-10-22T21:56:18.210Z,96961.28
2022-10-22T22:06:23.920Z,96960.50
2022-10-22T22:16:30.970Z,96965.27
2022-10-22T22:26:35.420Z,96968.52
2022-10-22T22:36:41.468Z,96964.13
2022-10-22T22:46:45.328Z,96979.92
2022-10-22T22:56:50.533Z,96992.35
2022-10-22T23:06:54.310Z,97003.43
2022-10-22T23:16:58.563Z,97004.18
2022-10-22T23:27:04.427Z,97012.46
2022-10-22T23:37:10.065Z,97014.71
2022-10-22T23:47:13.890Z,97033.05
2022-10-22T23:57:18.051Z,97042.81
